sensor_id;sensor_type;location;lat;lon;timestamp;pressure;altitude;pressure_sealevel;temperature;humidity
61474;BME280;53694;49.784;30.150;2023-05-25T00:00:21;99591.73;;;17.66;70.90
61474;BME280;53694;49.784;30.150;2023-05-25T00:01:23;99593.07;;;17.95;68.97
61474;BME280;53694;49.784;30.150;2023-05-25T00:02:24;99585.65;;;18.23;68.13
61474;BME280;53694;49.784;30.150;2023-05-25T00:03:26;99589.28;;;18.51;67.14
61474;BME280;53694;49.784;30.150;2023-05-25T00:04:27;99597.03;;;18.70;66.19
61474;BME280;53694;49.784;30.150;2023-05-25T00:05:29;99598.55;;;18.75;65.23
61474;BME280;53694;49.784;30.150;2023-05-25T00:06:31;99595.47;;;18.65;65.12
61474;BME280;53694;49.784;30.150;2023-05-25T00:07:33;99592.06;;;18.51;65.39
61474;BME280;53694;49.784;30.150;2023-05-25T00:08:34;99591.50;;;18.32;65.84
61474;BME280;53694;49.784;30.150;2023-05-25T00:09:36;99598.05;;;18.15;66.83
61474;BME280;53694;49.784;30.150;2023-05-25T00:10:37;99590.69;;;17.97;67.59
61474;BME280;53694;49.784;30.150;2023-05-25T00:11:39;99593.22;;;17.81;68.14
61474;BME280;53694;49.784;30.150;2023-05-25T00:12:40;99595.71;;;17.65;68.52
61474;BME280;53694;49.784;30.150;2023-05-25T00:13:42;99589.89;;;17.48;69.01
61474;BME280;53694;49.784;30.150;2023-05-25T00:14:43;99595.95;;;17.33;69.57
61474;BME280;53694;49.784;30.150;2023-05-25T00:15:45;99595.28;;;17.18;70.23
61474;BME280;53694;49.784;30.150;2023-05-25T00:16:47;99598.16;;;17.04;70.77
61474;BME280;53694;49.784;30.150;2023-05-25T00:17:48;99601.39;;;16.91;71.05
61474;BME280;53694;49.784;30.150;2023-05-25T00:18:50;99599.42;;;16.88;71.41
61474;BME280;53694;49.784;30.150;2023-05-25T00:19:51;99592.23;;;16.94;70.95
61474;BME280;53694;49.784;30.150;2023-05-25T00:20:53;99597.28;;;17.14;70.52
61474;BME280;53694;49.784;30.150;2023-05-25T00:21:54;99600.28;;;17.37;69.75
61474;BME280;53694;49.784;30.150;2023-05-25T00:22:56;99598.91;;;17.63;68.93
61474;BME280;53694;49.784;30.150;2023-05-25T00:23:57;99590.37;;;17.88;67.64
61474;BME280;53694;49.784;30.150;2023-05-25T00:24:59;99592.19;;;18.06;66.94
61474;BME280;53694;49.784;30.150;2023-05-25T00:26:02;99601.64;;;18.12;66.25
61474;BME280;53694;49.784;30.150;2023-05-25T00:27:04;99595.75;;;18.06;66.49
61474;BME280;53694;49.784;30.150;2023-05-25T00:28:05;99598.27;;;17.93;66.61
61474;BME280;53694;49.784;30.150;2023-05-25T00:29:07;99597.23;;;17.77;67.21
61474;BME280;53694;49.784;30.150;2023-05-25T00:30:09;99601.71;;;17.60;67.63
61474;BME280;53694;49.784;30.150;2023-05-25T00:31:11;99606.99;;;17.43;68.46
61474;BME280;53694;49.784;30.150;2023-05-25T00:32:12;99604.73;;;17.24;68.76
61474;BME280;53694;49.784;30.150;2023-05-25T00:33:14;99604.09;;;17.02;69.34
61474;BME280;53694;49.784;30.150;2023-05-25T00:34:16;99608.95;;;16.84;70.07
61474;BME280;53694;49.784;30.150;2023-05-25T00:35:18;99607.41;;;16.68;70.58
61474;BME280;53694;49.784;30.150;2023-05-25T00:36:19;99613.02;;;16.54;71.10
61474;BME280;53694;49.784;30.150;2023-05-25T00:37:21;99607.50;;;16.43;71.59
61474;BME280;53694;49.784;30.150;2023-05-25T00:38:23;99605.13;;;16.45;71.81
61474;BME280;53694;49.784;30.150;2023-05-25T00:39:24;99605.06;;;16.60;71.91
61474;BME280;53694;49.784;30.150;2023-05-25T00:40:26;99609.38;;;16.82;71.65
61474;BME280;53694;49.784;30.150;2023-05-25T00:41:27;99600.86;;;17.11;71.11
61474;BME280;53694;49.784;30.150;2023-05-25T00:42:31;99603.81;;;17.41;70.29
61474;BME280;53694;49.784;30.150;2023-05-25T00:43:33;99597.23;;;17.73;69.28
61474;BME280;53694;49.784;30.150;2023-05-25T00:44:35;99598.17;;;18.01;68.10
61474;BME280;53694;49.784;30.150;2023-05-25T00:45:37;99593.52;;;18.28;67.28
61474;BME280;53694;49.784;30.150;2023-05-25T00:46:42;99591.74;;;18.45;66.26
61474;BME280;53694;49.784;30.150;2023-05-25T00:47:43;99588.89;;;18.52;65.37
61474;BME280;53694;49.784;30.150;2023-05-25T00:48:44;99598.45;;;18.47;65.26
61474;BME280;53694;49.784;30.150;2023-05-25T00:49:46;99588.72;;;18.32;65.33
61474;BME280;53694;49.784;30.150;2023-05-25T00:50:47;99597.66;;;18.13;65.39
61474;BME280;53694;49.784;30.150;2023-05-25T00:51:51;99589.95;;;17.90;65.50
61474;BME280;53694;49.784;30.150;2023-05-25T00:52:53;99589.37;;;17.64;66.46
61474;BME280;53694;49.784;30.150;2023-05-25T00:53:54;99599.87;;;17.42;67.03
61474;BME280;53694;49.784;30.150;2023-05-25T00:54:57;99595.64;;;17.20;67.39
61474;BME280;53694;49.784;30.150;2023-05-25T00:56:10;99596.57;;;16.99;68.08
61474;BME280;53694;49.784;30.150;2023-05-25T00:57:13;99591.56;;;16.76;68.77
61474;BME280;53694;49.784;30.150;2023-05-25T00:58:23;99600.36;;;16.53;69.58
61474;BME280;53694;49.784;30.150;2023-05-25T00:59:41;99592.13;;;16.32;70.67
61474;BME280;53694;49.784;30.150;2023-05-25T01:00:44;99593.34;;;16.16;71.85
61474;BME280;53694;49.784;30.150;2023-05-25T01:01:47;99594.55;;;16.01;72.93
61474;BME280;53694;49.784;30.150;2023-05-25T01:02:50;99597.73;;;15.96;73.25
61474;BME280;53694;49.784;30.150;2023-05-25T01:03:54;99594.17;;;16.03;73.53
61474;BME280;53694;49.784;30.150;2023-05-25T01:04:59;99596.89;;;16.20;73.31
61474;BME280;53694;49.784;30.150;2023-05-25T01:06:08;99590.87;;;16.43;72.73
61474;BME280;53694;49.784;30.150;2023-05-25T01:07:22;99600.27;;;16.71;72.34
61474;BME280;53694;49.784;30.150;2023-05-25T01:08:24;99599.33;;;17.03;71.39
61474;BME280;53694;49.784;30.150;2023-05-25T01:09:28;99595.95;;;17.33;70.23
61474;BME280;53694;49.784;30.150;2023-05-25T01:10:32;99596.16;;;17.60;69.58
61474;BME280;53694;49.784;30.150;2023-05-25T01:11:36;99588.81;;;17.84;68.23
61474;BME280;53694;49.784;30.150;2023-05-25T01:12:41;99593.43;;;18.01;67.33
61474;BME280;53694;49.784;30.150;2023-05-25T01:13:43;99591.73;;;18.11;66.76
61474;BME280;53694;49.784;30.150;2023-05-25T01:14:45;99593.76;;;18.07;66.55
61474;BME280;53694;49.784;30.150;2023-05-25T01:15:48;99597.87;;;17.91;66.69
61474;BME280;53694;49.784;30.150;2023-05-25T01:16:51;99599.61;;;17.71;66.66
61474;BME280;53694;49.784;30.150;2023-05-25T01:17:53;99598.66;;;17.43;67.08
61474;BME280;53694;49.784;30.150;2023-05-25T01:18:55;99601.63;;;17.15;67.93
61474;BME280;53694;49.784;30.150;2023-05-25T01:19:56;99605.34;;;16.90;68.98
61474;BME280;53694;49.784;30.150;2023-05-25T01:21:38;99612.95;;;16.68;69.52
61474;BME280;53694;49.784;30.150;2023-05-25T01:22:31;99608.28;;;16.47;70.29
61474;BME280;53694;49.784;30.150;2023-05-25T01:23:32;99609.17;;;16.23;71.69
61474;BME280;53694;49.784;30.150;2023-05-25T01:25:59;99605.25;;;16.03;72.52
61474;BME280;53694;49.784;30.150;2023-05-25T01:27:18;99606.78;;;16.18;73.26
61474;BME280;53694;49.784;30.150;2023-05-25T01:28:29;99601.95;;;16.43;72.65
61474;BME280;53694;49.784;30.150;2023-05-25T01:29:32;99605.41;;;16.80;71.75
61474;BME280;53694;49.784;30.150;2023-05-25T01:30:36;99601.61;;;17.18;70.40
61474;BME280;53694;49.784;30.150;2023-05-25T01:31:39;99595.42;;;17.52;69.25
61474;BME280;53694;49.784;30.150;2023-05-25T01:32:42;99591.65;;;17.80;67.97
61474;BME280;53694;49.784;30.150;2023-05-25T01:33:45;99586.63;;;18.06;66.92
61474;BME280;53694;49.784;30.150;2023-05-25T01:34:47;99592.78;;;18.24;66.25
61474;BME280;53694;49.784;30.150;2023-05-25T01:35:51;99591.17;;;18.27;65.62
61474;BME280;53694;49.784;30.150;2023-05-25T01:36:53;99592.03;;;18.20;65.68
61474;BME280;53694;49.784;30.150;2023-05-25T01:37:54;99590.59;;;18.05;65.84
61474;BME280;53694;49.784;30.150;2023-05-25T01:38:58;99589.98;;;17.86;66.31
61474;BME280;53694;49.784;30.150;2023-05-25T01:40:00;99591.73;;;17.66;66.74
61474;BME280;53694;49.784;30.150;2023-05-25T01:41:01;99598.24;;;17.45;67.46
61474;BME280;53694;49.784;30.150;2023-05-25T01:42:03;99600.79;;;17.25;68.05
61474;BME280;53694;49.784;30.150;2023-05-25T01:43:04;99594.18;;;17.05;68.57
61474;BME280;53694;49.784;30.150;2023-05-25T01:44:06;99601.01;;;16.86;69.29
61474;BME280;53694;49.784;30.150;2023-05-25T01:45:10;99603.47;;;16.66;69.77
61474;BME280;53694;49.784;30.150;2023-05-25T01:46:26;99597.19;;;16.47;70.35
61474;BME280;53694;49.784;30.150;2023-05-25T01:47:34;99608.34;;;16.30;71.05
61474;BME280;53694;49.784;30.150;2023-05-25T01:50:23;99602.08;;;16.00;72.53
61474;BME280;53694;49.784;30.150;2023-05-25T01:51:29;99607.61;;;16.15;72.44
61474;BME280;53694;49.784;30.150;2023-05-25T01:52:35;99607.54;;;16.40;72.11
61474;BME280;53694;49.784;30.150;2023-05-25T01:53:47;99610.17;;;16.68;70.76
61474;BME280;53694;49.784;30.150;2023-05-25T01:54:54;99614.83;;;16.96;69.85
61474;BME280;53694;49.784;30.150;2023-05-25T01:55:57;99607.14;;;17.22;68.83
61474;BME280;53694;49.784;30.150;2023-05-25T01:57:00;99608.98;;;17.43;67.81
61474;BME280;53694;49.784;30.150;2023-05-25T01:58:04;99610.84;;;17.57;67.15
61474;BME280;53694;49.784;30.150;2023-05-25T01:59:08;99610.84;;;17.57;67.19
61474;BME280;53694;49.784;30.150;2023-05-25T02:00:12;99610.55;;;17.44;67.41
61474;BME280;53694;49.784;30.150;2023-05-25T02:01:14;99608.72;;;17.23;68.03
61474;BME280;53694;49.784;30.150;2023-05-25T02:02:18;99612.83;;;17.01;68.93
61474;BME280;53694;49.784;30.150;2023-05-25T02:03:20;99614.14;;;16.78;69.75
61474;BME280;53694;49.784;30.150;2023-05-25T02:04:22;99621.33;;;16.58;70.50
61474;BME280;53694;49.784;30.150;2023-05-25T02:05:23;99604.77;;;16.36;71.31
61474;BME280;53694;49.784;30.150;2023-05-25T02:06:25;99613.93;;;16.19;72.17
61474;BME280;53694;49.784;30.150;2023-05-25T02:07:27;99612.74;;;16.09;72.63
61474;BME280;53694;49.784;30.150;2023-05-25T02:08:29;99609.97;;;16.13;72.69
61474;BME280;53694;49.784;30.150;2023-05-25T02:09:30;99610.73;;;16.28;72.45
61474;BME280;53694;49.784;30.150;2023-05-25T02:10:32;99610.67;;;16.49;72.14
61474;BME280;53694;49.784;30.150;2023-05-25T02:11:33;99615.31;;;16.77;71.31
61474;BME280;53694;49.784;30.150;2023-05-25T02:12:35;99606.48;;;17.04;70.35
61474;BME280;53694;49.784;30.150;2023-05-25T02:13:37;99608.27;;;17.32;69.46
61474;BME280;53694;49.784;30.150;2023-05-25T02:14:38;99606.87;;;17.58;68.25
61474;BME280;53694;49.784;30.150;2023-05-25T02:15:40;99608.67;;;17.82;67.46
61474;BME280;53694;49.784;30.150;2023-05-25T02:16:41;99607.35;;;17.97;66.65
61474;BME280;53694;49.784;30.150;2023-05-25T02:17:43;99606.51;;;18.01;66.07
61474;BME280;53694;49.784;30.150;2023-05-25T02:18:45;99605.39;;;17.94;66.46
61474;BME280;53694;49.784;30.150;2023-05-25T02:19:46;99611.48;;;17.79;66.75
61474;BME280;53694;49.784;30.150;2023-05-25T02:20:48;99607.63;;;17.62;67.36
61474;BME280;53694;49.784;30.150;2023-05-25T02:21:49;99614.11;;;17.44;67.87
61474;BME280;53694;49.784;30.150;2023-05-25T02:22:51;99612.67;;;17.26;68.73
61474;BME280;53694;49.784;30.150;2023-05-25T02:23:52;99611.20;;;17.07;69.01
61474;BME280;53694;49.784;30.150;2023-05-25T02:24:54;99613.70;;;16.87;69.71
61474;BME280;53694;49.784;30.150;2023-05-25T02:25:55;99614.56;;;16.66;70.41
61474;BME280;53694;49.784;30.150;2023-05-25T02:26:57;99611.45;;;16.49;71.15
61474;BME280;53694;49.784;30.150;2023-05-25T02:27:58;99617.02;;;16.35;71.97
61474;BME280;53694;49.784;30.150;2023-05-25T02:29:00;99624.18;;;16.29;72.39
61474;BME280;53694;49.784;30.150;2023-05-25T02:30:02;99621.40;;;16.36;72.52
61474;BME280;53694;49.784;30.150;2023-05-25T02:31:03;99617.36;;;16.55;72.15
61474;BME280;53694;49.784;30.150;2023-05-25T02:32:05;99620.86;;;16.77;71.70
61474;BME280;53694;49.784;30.150;2023-05-25T02:33:07;99621.13;;;17.08;71.19
61474;BME280;53694;49.784;30.150;2023-05-25T02:34:09;99611.02;;;17.35;69.10
61474;BME280;53694;49.784;30.150;2023-05-25T02:35:10;99621.93;;;17.60;67.68
61474;BME280;53694;49.784;30.150;2023-05-25T02:36:12;99620.97;;;17.85;67.50
61474;BME280;53694;49.784;30.150;2023-05-25T02:37:14;99608.92;;;17.98;65.96
61474;BME280;53694;49.784;30.150;2023-05-25T02:38:15;99616.81;;;18.04;65.75
61474;BME280;53694;49.784;30.150;2023-05-25T02:39:17;99615.69;;;17.97;65.73
61474;BME280;53694;49.784;30.150;2023-05-25T02:40:19;99621.75;;;17.85;66.23
61474;BME280;53694;49.784;30.150;2023-05-25T02:41:20;99616.27;;;17.71;66.87
61474;BME280;53694;49.784;30.150;2023-05-25T02:42:22;99620.38;;;17.56;67.14
61474;BME280;53694;49.784;30.150;2023-05-25T02:43:23;99624.45;;;17.40;66.81
61474;BME280;53694;49.784;30.150;2023-05-25T02:44:25;99634.05;;;17.29;67.02
61474;BME280;53694;49.784;30.150;2023-05-25T02:45:26;99612.73;;;17.15;67.12
61474;BME280;53694;49.784;30.150;2023-05-25T02:46:28;99619.16;;;17.01;67.46
61474;BME280;53694;49.784;30.150;2023-05-25T02:47:29;99620.03;;;16.87;67.74
61474;BME280;53694;49.784;30.150;2023-05-25T02:48:31;99620.86;;;16.77;68.69
61474;BME280;53694;49.784;30.150;2023-05-25T02:49:32;99620.88;;;16.70;68.90
61474;BME280;53694;49.784;30.150;2023-05-25T02:50:34;99614.95;;;16.61;69.09
61474;BME280;53694;49.784;30.150;2023-05-25T02:51:36;99619.35;;;16.55;69.53
61474;BME280;53694;49.784;30.150;2023-05-25T02:52:37;99620.14;;;16.52;69.80
61474;BME280;53694;49.784;30.150;2023-05-25T02:53:39;99619.37;;;16.47;70.10
61474;BME280;53694;49.784;30.150;2023-05-25T02:54:40;99622.96;;;16.44;70.38
61474;BME280;53694;49.784;30.150;2023-05-25T02:55:42;99628.10;;;16.42;70.51
61474;BME280;53694;49.784;30.150;2023-05-25T02:56:44;99621.35;;;16.47;70.67
61474;BME280;53694;49.784;30.150;2023-05-25T02:57:45;99624.05;;;16.65;70.34
61474;BME280;53694;49.784;30.150;2023-05-25T02:58:47;99623.17;;;16.93;69.41
61474;BME280;53694;49.784;30.150;2023-05-25T02:59:49;99624.95;;;17.24;68.49
61474;BME280;53694;49.784;30.150;2023-05-25T03:00:50;99627.48;;;17.60;67.47
61474;BME280;53694;49.784;30.150;2023-05-25T03:01:52;99624.11;;;17.87;65.53
61474;BME280;53694;49.784;30.150;2023-05-25T03:02:54;99627.59;;;17.98;64.50
61474;BME280;53694;49.784;30.150;2023-05-25T03:03:55;99628.73;;;18.01;64.44
61474;BME280;53694;49.784;30.150;2023-05-25T03:04:57;99628.80;;;17.97;64.78
61474;BME280;53694;49.784;30.150;2023-05-25T03:05:59;99631.63;;;17.90;64.49
61474;BME280;53694;49.784;30.150;2023-05-25T03:07:00;99631.71;;;17.79;64.57
61474;BME280;53694;49.784;30.150;2023-05-25T03:08:02;99632.99;;;17.67;65.67
61474;BME280;53694;49.784;30.150;2023-05-25T03:09:03;99644.56;;;17.59;65.47
61474;BME280;53694;49.784;30.150;2023-05-25T03:10:05;99641.07;;;17.47;65.71
61474;BME280;53694;49.784;30.150;2023-05-25T03:11:07;99639.54;;;17.39;65.91
61474;BME280;53694;49.784;30.150;2023-05-25T03:12:09;99642.37;;;17.29;66.26
61474;BME280;53694;49.784;30.150;2023-05-25T03:13:10;99641.25;;;17.19;66.61
61474;BME280;53694;49.784;30.150;2023-05-25T03:14:12;99632.17;;;17.11;67.13
61474;BME280;53694;49.784;30.150;2023-05-25T03:15:13;99631.45;;;17.04;67.17
61474;BME280;53694;49.784;30.150;2023-05-25T03:16:15;99639.38;;;16.98;67.93
61474;BME280;53694;49.784;30.150;2023-05-25T03:17:16;99636.63;;;16.94;68.10
61474;BME280;53694;49.784;30.150;2023-05-25T03:18:18;99635.06;;;16.90;68.48
61474;BME280;53694;49.784;30.150;2023-05-25T03:19:19;99639.04;;;16.89;68.42
61474;BME280;53694;49.784;30.150;2023-05-25T03:20:21;99640.25;;;16.84;68.62
61474;BME280;53694;49.784;30.150;2023-05-25T03:21:23;99639.06;;;16.82;68.62
61474;BME280;53694;49.784;30.150;2023-05-25T03:22:24;99633.16;;;16.76;68.94
61474;BME280;53694;49.784;30.150;2023-05-25T03:23:25;99629.58;;;16.72;69.71
61474;BME280;53694;49.784;30.150;2023-05-25T03:24:27;99639.09;;;16.71;69.57
61474;BME280;53694;49.784;30.150;2023-05-25T03:25:29;99631.19;;;16.69;69.76
61474;BME280;53694;49.784;30.150;2023-05-25T03:26:31;99631.18;;;16.73;70.18
61474;BME280;53694;49.784;30.150;2023-05-25T03:27:33;99631.97;;;16.73;70.07
61474;BME280;53694;49.784;30.150;2023-05-25T03:28:34;99631.58;;;16.75;70.13
61474;BME280;53694;49.784;30.150;2023-05-25T03:29:36;99634.29;;;16.86;69.91
61474;BME280;53694;49.784;30.150;2023-05-25T03:30:38;99635.80;;;17.05;69.37
61474;BME280;53694;49.784;30.150;2023-05-25T03:31:39;99626.09;;;17.34;68.10
61474;BME280;53694;49.784;30.150;2023-05-25T03:32:41;99629.06;;;17.61;67.35
61474;BME280;53694;49.784;30.150;2023-05-25T03:33:42;99628.15;;;17.79;66.51
61474;BME280;53694;49.784;30.150;2023-05-25T03:34:44;99629.66;;;17.87;65.89
61474;BME280;53694;49.784;30.150;2023-05-25T03:35:45;99624.11;;;17.87;65.41
61474;BME280;53694;49.784;30.150;2023-05-25T03:36:47;99624.14;;;17.83;65.38
61474;BME280;53694;49.784;30.150;2023-05-25T03:37:49;99627.36;;;17.78;65.41
61474;BME280;53694;49.784;30.150;2023-05-25T03:38:50;99621.83;;;17.71;65.49
61474;BME280;53694;49.784;30.150;2023-05-25T03:39:52;99631.81;;;17.65;66.03
61474;BME280;53694;49.784;30.150;2023-05-25T03:40:53;99623.92;;;17.60;65.97
61474;BME280;53694;49.784;30.150;2023-05-25T03:41:55;99632.28;;;17.56;65.96
61474;BME280;53694;49.784;30.150;2023-05-25T03:42:56;99629.52;;;17.53;66.27
61474;BME280;53694;49.784;30.150;2023-05-25T03:43:58;99625.98;;;17.48;66.21
61474;BME280;53694;49.784;30.150;2023-05-25T03:44:59;99629.62;;;17.42;66.05
61474;BME280;53694;49.784;30.150;2023-05-25T03:46:01;99626.09;;;17.34;65.99
61474;BME280;53694;49.784;30.150;2023-05-25T03:47:03;99637.66;;;17.26;66.35
61474;BME280;53694;49.784;30.150;2023-05-25T03:48:05;99633.71;;;17.19;66.90
61474;BME280;53694;49.784;30.150;2023-05-25T03:49:06;99635.72;;;17.15;66.87
61474;BME280;53694;49.784;30.150;2023-05-25T03:50:08;99632.57;;;17.13;67.33
61474;BME280;53694;49.784;30.150;2023-05-25T03:51:10;99636.92;;;17.14;67.40
61474;BME280;53694;49.784;30.150;2023-05-25T03:52:11;99638.89;;;17.17;67.46
61474;BME280;53694;49.784;30.150;2023-05-25T03:53:13;99649.19;;;17.20;67.57
61474;BME280;53694;49.784;30.150;2023-05-25T03:54:15;99643.59;;;17.24;67.83
61474;BME280;53694;49.784;30.150;2023-05-25T03:55:16;99642.37;;;17.29;67.57
61474;BME280;53694;49.784;30.150;2023-05-25T03:56:18;99647.53;;;17.30;67.59
61474;BME280;53694;49.784;30.150;2023-05-25T03:57:19;99641.18;;;17.33;67.67
61474;BME280;53694;49.784;30.150;2023-05-25T03:58:21;99637.20;;;17.34;67.23
61474;BME280;53694;49.784;30.150;2023-05-25T03:59:23;99634.81;;;17.33;66.95
61474;BME280;53694;49.784;30.150;2023-05-25T04:00:24;99638.00;;;17.31;67.30
61474;BME280;53694;49.784;30.150;2023-05-25T04:01:28;99643.55;;;17.31;67.43
61474;BME280;53694;49.784;30.150;2023-05-25T04:02:29;99641.18;;;17.33;67.64
61474;BME280;53694;49.784;30.150;2023-05-25T04:03:31;99643.12;;;17.36;67.87
61474;BME280;53694;49.784;30.150;2023-05-25T04:04:32;99641.11;;;17.40;67.71
61474;BME280;53694;49.784;30.150;2023-05-25T04:05:34;99647.42;;;17.44;67.51
61474;BME280;53694;49.784;30.150;2023-05-25T04:06:36;99642.66;;;17.45;67.43
61474;BME280;53694;49.784;30.150;2023-05-25T04:07:37;99652.98;;;17.44;67.31
61474;BME280;53694;49.784;30.150;2023-05-25T04:08:39;99638.71;;;17.46;67.52
61474;BME280;53694;49.784;30.150;2023-05-25T04:09:40;99648.19;;;17.48;67.60
61474;BME280;53694;49.784;30.150;2023-05-25T04:10:47;99643.43;;;17.49;67.67
61474;BME280;53694;49.784;30.150;2023-05-25T04:11:46;99648.59;;;17.51;67.79
61474;BME280;53694;49.784;30.150;2023-05-25T04:12:47;99632.72;;;17.51;67.91
61474;BME280;53694;49.784;30.150;2023-05-25T04:13:49;99638.66;;;17.49;68.12
61474;BME280;53694;49.784;30.150;2023-05-25T04:14:51;99632.73;;;17.47;68.03
61474;BME280;53694;49.784;30.150;2023-05-25T04:15:52;99631.19;;;17.43;68.29
61474;BME280;53694;49.784;30.150;2023-05-25T04:16:54;99631.19;;;17.43;68.29
61474;BME280;53694;49.784;30.150;2023-05-25T04:17:56;99630.01;;;17.40;68.55
61474;BME280;53694;49.784;30.150;2023-05-25T04:18:57;99637.13;;;17.41;69.02
61474;BME280;53694;49.784;30.150;2023-05-25T04:19:58;99637.13;;;17.41;69.02
61474;BME280;53694;49.784;30.150;2023-05-25T04:21:00;99633.55;;;17.44;68.69
61474;BME280;53694;49.784;30.150;2023-05-25T04:22:02;99629.96;;;17.47;68.96
61474;BME280;53694;49.784;30.150;2023-05-25T04:23:03;99635.86;;;17.53;68.96
61474;BME280;53694;49.784;30.150;2023-05-25T04:24:05;99634.24;;;17.59;69.17
61474;BME280;53694;49.784;30.150;2023-05-25T04:25:07;99643.70;;;17.65;68.98
61474;BME280;53694;49.784;30.150;2023-05-25T04:26:10;99634.93;;;17.70;68.36
61474;BME280;53694;49.784;30.150;2023-05-25T04:27:11;99640.88;;;17.72;68.15
61474;BME280;53694;49.784;30.150;2023-05-25T04:28:13;99636.50;;;17.75;67.67
61474;BME280;53694;49.784;30.150;2023-05-25T04:29:15;99629.38;;;17.74;67.67
61474;BME280;53694;49.784;30.150;2023-05-25T04:30:16;99635.72;;;17.74;67.77
61474;BME280;53694;49.784;30.150;2023-05-25T04:31:18;99641.27;;;17.74;67.87
61474;BME280;53694;49.784;30.150;2023-05-25T04:32:20;99638.11;;;17.76;67.84
61474;BME280;53694;49.784;30.150;2023-05-25T04:33:22;99629.36;;;17.78;67.90
61474;BME280;53694;49.784;30.150;2023-05-25T04:34:23;99626.94;;;17.80;67.75
61474;BME280;53694;49.784;30.150;2023-05-25T04:35:25;99639.23;;;17.82;67.93
61474;BME280;53694;49.784;30.150;2023-05-25T04:36:26;99635.64;;;17.85;68.05
61474;BME280;53694;49.784;30.150;2023-05-25T04:37:28;99632.84;;;17.89;68.07
61474;BME280;53694;49.784;30.150;2023-05-25T04:38:29;99640.30;;;17.95;67.78
61474;BME280;53694;49.784;30.150;2023-05-25T04:39:31;99640.30;;;17.95;67.78
61474;BME280;53694;49.784;30.150;2023-05-25T04:40:33;99638.70;;;17.98;67.48
61474;BME280;53694;49.784;30.150;2023-05-25T04:41:35;99641.06;;;17.99;67.42
61474;BME280;53694;49.784;30.150;2023-05-25T04:42:36;99641.45;;;18.02;67.44
61474;BME280;53694;49.784;30.150;2023-05-25T04:43:38;99641.81;;;18.04;66.98
61474;BME280;53694;49.784;30.150;2023-05-25T04:44:39;99633.48;;;18.04;66.95
61474;BME280;53694;49.784;30.150;2023-05-25T04:45:41;99637.83;;;18.05;67.08
61474;BME280;53694;49.784;30.150;2023-05-25T04:46:42;99635.05;;;18.05;66.86
61474;BME280;53694;49.784;30.150;2023-05-25T04:47:44;99638.22;;;18.07;66.46
61474;BME280;53694;49.784;30.150;2023-05-25T04:48:46;99632.66;;;18.07;66.28
61474;BME280;53694;49.784;30.150;2023-05-25T04:49:47;99631.09;;;18.06;66.18
61474;BME280;53694;49.784;30.150;2023-05-25T04:50:49;99646.16;;;18.05;66.11
61474;BME280;53694;49.784;30.150;2023-05-25T04:51:51;99639.82;;;18.04;66.32
61474;BME280;53694;49.784;30.150;2023-05-25T04:52:52;99639.43;;;18.06;66.11
61474;BME280;53694;49.784;30.150;2023-05-25T04:53:54;99643.78;;;18.07;65.66
61474;BME280;53694;49.784;30.150;2023-05-25T04:54:55;99639.00;;;18.07;65.44
61474;BME280;53694;49.784;30.150;2023-05-25T04:55:57;99646.92;;;18.09;65.46
61474;BME280;53694;49.784;30.150;2023-05-25T04:56:58;99648.91;;;18.08;65.16
61474;BME280;53694;49.784;30.150;2023-05-25T04:58:00;99649.70;;;18.09;64.95
61474;BME280;53694;49.784;30.150;2023-05-25T04:59:02;99649.30;;;18.10;65.50
61474;BME280;53694;49.784;30.150;2023-05-25T05:00:04;99647.31;;;18.11;65.25
61474;BME280;53694;49.784;30.150;2023-05-25T05:01:06;99648.88;;;18.12;65.52
61474;BME280;53694;49.784;30.150;2023-05-25T05:02:07;99646.86;;;18.16;65.77
61474;BME280;53694;49.784;30.150;2023-05-25T05:03:09;99642.48;;;18.18;65.66
61474;BME280;53694;49.784;30.150;2023-05-25T05:04:10;99649.19;;;18.21;65.43
61474;BME280;53694;49.784;30.150;2023-05-25T05:05:12;99645.20;;;18.22;65.51
61474;BME280;53694;49.784;30.150;2023-05-25T05:06:14;99642.02;;;18.23;65.32
61474;BME280;53694;49.784;30.150;2023-05-25T05:07:16;99647.16;;;18.25;65.02
61474;BME280;53694;49.784;30.150;2023-05-25T05:08:17;99648.34;;;18.28;64.74
61474;BME280;53694;49.784;30.150;2023-05-25T05:09:19;99649.13;;;18.28;64.70
61474;BME280;53694;49.784;30.150;2023-05-25T05:10:21;99646.70;;;18.30;64.56
61474;BME280;53694;49.784;30.150;2023-05-25T05:11:22;99649.87;;;18.32;64.69
61474;BME280;53694;49.784;30.150;2023-05-25T05:12:24;99647.45;;;18.34;64.45
61474;BME280;53694;49.784;30.150;2023-05-25T05:13:25;99648.63;;;18.37;64.40
61474;BME280;53694;49.784;30.150;2023-05-25T05:14:27;99653.38;;;18.40;64.16
61474;BME280;53694;49.784;30.150;2023-05-25T05:15:28;99647.39;;;18.41;63.73
61474;BME280;53694;49.784;30.150;2023-05-25T05:16:30;99648.14;;;18.45;63.97
61474;BME280;53694;49.784;30.150;2023-05-25T05:17:32;99652.88;;;18.48;63.79
61474;BME280;53694;49.784;30.150;2023-05-25T05:18:33;99652.03;;;18.52;63.81
61474;BME280;53694;49.784;30.150;2023-05-25T05:19:35;99648.00;;;18.56;64.01
61474;BME280;53694;49.784;30.150;2023-05-25T05:20:36;99643.19;;;18.60;64.09
61474;BME280;53694;49.784;30.150;2023-05-25T05:21:38;99645.58;;;18.62;63.84
61474;BME280;53694;49.784;30.150;2023-05-25T05:22:39;99644.75;;;18.65;63.86
61474;BME280;53694;49.784;30.150;2023-05-25T05:23:41;99648.67;;;18.67;63.96
61474;BME280;53694;49.784;30.150;2023-05-25T05:24:43;99642.32;;;18.70;63.67
61474;BME280;53694;49.784;30.150;2023-05-25T05:25:45;99651.45;;;18.71;63.32
61474;BME280;53694;49.784;30.150;2023-05-25T05:26:46;99652.23;;;18.71;63.46
61474;BME280;53694;49.784;30.150;2023-05-25T05:27:48;99651.02;;;18.72;63.47
61474;BME280;53694;49.784;30.150;2023-05-25T05:28:49;99652.20;;;18.75;63.62